Data for 02/03/2008

Time Sea-Level Adjusted Pressure Absolute Pressure Temperature Relative Humidity Dew Point   
(mb) (inHg) (mb) (inHg) (C) (F) (%) (C) (F)
00:05 1003 29.62 832 24.57 -6.7 20 48 -16.1 3.1
00:10 1003 29.62 832 24.57 -6.6 20.2 49 -15.7 3.8
00:15 1003 29.62 832 24.57 -6.7 20 48 -15.8 3.5
00:20 1003 29.62 832 24.57 -6.5 20.4 47 -15.9 3.4
00:25 1003 29.62 832 24.57 -6.3 20.7 46 -16.1 2.9
00:30 1003 29.62 832 24.57 -6.2 20.9 47 -15.9 3.5
00:35 1003 29.62 832 24.57 -6.1 21.1 46 -15.9 3.5
00:40 1003 29.62 832 24.57 -6 21.3 46 -15.8 3.5
00:45 1002 29.59 832 24.57 -6 21.1 48 -15.4 4.3
00:50 1002 29.59 832 24.57 -6.2 20.8 47 -15.7 3.8
00:55 1002 29.59 831 24.54 -6.3 20.6 49 -15.5 4.1
01:00 1002 29.59 831 24.54 -6.5 20.4 49 -15.4 4.2
01:05 1002 29.59 831 24.54 -6.5 20.3 50 -15.3 4.5
01:10 1002 29.59 831 24.54 -6.5 20.4 50 -15.3 4.5
01:15 1002 29.59 831 24.54 -6.5 20.3 50 -15.4 4.3
01:20 1002 29.59 831 24.54 -6.5 20.3 50 -15.4 4.2
01:25 1002 29.59 831 24.54 -6.5 20.3 50 -15.3 4.5
01:30 1002 29.59 831 24.54 -6.5 20.3 50 -15.3 4.4
01:35 1001 29.56 831 24.54 -6.5 20.3 50 -15.3 4.5
01:40 1001 29.56 830 24.51 -6.3 20.6 51 -15 5
01:45 1001 29.56 830 24.51 -6.3 20.7 51 -14.9 5.2
01:50 1001 29.56 830 24.51 -6.3 20.7 52 -14.6 5.8
01:55 1001 29.56 830 24.51 -6.2 20.8 53 -14.4 6.1
02:00 1001 29.56 830 24.51 -6.3 20.7 54 -14.2 6.4
02:05 1001 29.56 830 24.51 -6.3 20.7 55 -13.9 6.9
02:10 1001 29.56 830 24.51 -6.1 21 54 -13.9 6.9
02:15 1001 29.56 830 24.51 -6 21.1 54 -13.8 7.1
02:20 1001 29.56 830 24.51 -5.9 21.3 53 -14 6.8
02:25 1001 29.56 830 24.51 -5.8 21.6 53 -14 6.9
02:30 1001 29.56 830 24.51 -5.8 21.6 54 -13.8 7.2
02:35 1001 29.56 830 24.51 -5.8 21.6 53 -13.9 7
02:40 1001 29.56 830 24.51 -5.7 21.7 52 -14.1 6.6
02:45 1000 29.53 830 24.51 -5.7 21.8 52 -14.1 6.6
02:50 1000 29.53 830 24.51 -5.6 21.8 53 -13.8 7.2
02:55 1000 29.53 830 24.51 -5.6 21.9 52 -13.9 6.9
03:00 1000 29.53 830 24.51 -5.6 22 53 -13.8 7.1
03:05 1000 29.53 829 24.48 -5.5 22 52 -13.8 7.1
03:10 1000 29.53 829 24.48 -5.5 22.1 52 -13.8 7.1
03:15 1000 29.53 829 24.48 -5.4 22.3 52 -13.7 7.3
03:20 1000 29.53 829 24.48 -5.4 22.2 53 -13.6 7.5
03:25 1000 29.53 829 24.48 -5.4 22.2 53 -13.6 7.5
03:30 1000 29.53 829 24.48 -5.4 22.3 53 -13.5 7.7
03:35 1000 29.53 829 24.48 -5.4 22.4 53 -13.4 7.8
03:40 1000 29.53 829 24.48 -5.4 22.3 54 -13.4 7.9
03:45 1000 29.53 829 24.48 -5.4 22.3 54 -13.4 7.8
03:50 1000 29.53 829 24.48 -5.4 22.3 54 -13.4 7.9
03:55 1000 29.53 829 24.48 -5.4 22.3 53 -13.5 7.7
04:00 999 29.5 829 24.48 -5.3 22.4 53 -13.5 7.7
04:05 999 29.5 829 24.48 -5.3 22.4 53 -13.5 7.7
04:10 999 29.5 829 24.48 -5.4 22.3 54 -13.4 7.9
04:15 999 29.5 828 24.45 -5.6 21.9 54 -13.6 7.5
04:20 999 29.5 828 24.45 -5.6 21.9 53 -13.8 7.2
04:25 999 29.5 828 24.45 -5.6 21.9 53 -13.8 7.1
04:30 999 29.5 828 24.45 -5.7 21.8 53 -13.7 7.3
04:35 999 29.5 828 24.45 -5.7 21.7 53 -13.9 7
04:40 999 29.5 828 24.45 -5.7 21.8 53 -13.8 7.1
04:45 999 29.5 828 24.45 -5.6 21.9 53 -13.8 7.1
04:50 999 29.5 828 24.45 -5.5 22.1 52 -13.8 7.1
04:55 999 29.5 828 24.45 -5.5 22.1 52 -13.9 7
05:00 999 29.5 828 24.45 -5.5 22.1 52 -13.8 7.1
05:05 999 29.5 828 24.45 -5.5 22.1 51 -14 6.7
05:10 998 29.47 828 24.45 -5.3 22.5 52 -13.8 7.2
05:15 999 29.5 828 24.45 -5.3 22.4 52 -13.8 7.2
05:20 999 29.5 828 24.45 -5.3 22.4 52 -13.7 7.3
05:25 998 29.47 828 24.45 -5.4 22.4 51 -13.9 7
05:30 998 29.47 828 24.45 -5.2 22.6 51 -13.7 7.3
05:35 998 29.47 828 24.45 -5.2 22.7 51 -13.7 7.3
05:40 998 29.47 828 24.45 -5.2 22.6 52 -13.5 7.6
05:45 998 29.47 828 24.45 -5.3 22.4 52 -13.7 7.4
05:50 998 29.47 827 24.42 -5.2 22.7 51 -13.7 7.3
05:55 998 29.47 827 24.42 -5.1 22.8 52 -13.5 7.6
06:00 998 29.47 827 24.42 -5.1 22.8 52 -13.5 7.7
06:05 998 29.47 827 24.42 -5.2 22.7 53 -13.4 7.9
06:10 998 29.47 827 24.42 -5.2 22.7 52 -13.5 7.7
06:15 998 29.47 827 24.42 -5.2 22.6 52 -13.6 7.6
06:20 998 29.47 827 24.42 -5.2 22.6 53 -13.4 7.8
06:25 998 29.47 827 24.42 -5.2 22.6 53 -13.4 7.8
06:30 998 29.47 827 24.42 -5.2 22.6 53 -13.4 7.9
06:35 998 29.47 827 24.42 -5.2 22.6 53 -13.4 8
06:40 998 29.47 827 24.42 -5.2 22.7 53 -13.4 7.8
06:45 998 29.47 827 24.42 -5.1 22.8 52 -13.5 7.7
06:50 998 29.47 827 24.42 -4.9 23.1 51 -13.6 7.6
06:55 998 29.47 827 24.42 -4.8 23.4 51 -13.4 7.9
07:00 998 29.47 827 24.42 -4.7 23.6 51 -13.3 8.1
07:05 998 29.47 827 24.42 -4.7 23.6 51 -13.3 8.1
07:10 998 29.47 827 24.42 -4.7 23.6 51 -13.3 8.1
07:15 998 29.47 827 24.42 -4.7 23.5 52 -13.2 8.2
07:20 998 29.47 827 24.42 -4.8 23.4 53 -13.1 8.5
07:25 998 29.47 827 24.42 -4.8 23.4 52 -13.2 8.3
07:30 998 29.47 827 24.42 -4.8 23.4 53 -13 8.5
07:35 998 29.47 827 24.42 -4.9 23.2 53 -12.9 8.7
07:40 998 29.47 827 24.42 -5 23 55 -12.7 9.2
07:45 998 29.47 827 24.42 -5 22.9 56 -12.6 9.3
07:50 998 29.47 827 24.42 -5.1 22.7 58 -12.3 9.9
07:55 998 29.47 827 24.42 -5.5 22.1 59 -12.2 10
08:00 998 29.47 827 24.42 -5.8 21.5 62 -12 10.5
08:05 998 29.47 827 24.42 -6.1 21 63 -12 10.4
08:10 998 29.47 827 24.42 -6.5 20.3 66 -11.9 10.6
08:15 998 29.47 827 24.42 -6.7 19.9 65 -12.2 10
08:20 998 29.47 827 24.42 -6.7 20 66 -12.1 10.3
08:25 998 29.47 827 24.42 -6.5 20.2 66 -11.9 10.5
08:30 998 29.47 827 24.42 -6.4 20.4 66 -11.9 10.6
08:35 998 29.47 827 24.42 -6.4 20.5 65 -11.9 10.5
08:40 998 29.47 827 24.42 -6.2 20.8 65 -11.8 10.8
08:45 998 29.47 827 24.42 -6 21.2 64 -11.8 10.8
08:50 998 29.47 827 24.42 -6 21.1 65 -11.6 11.1
08:55 998 29.47 827 24.42 -6.1 21.1 67 -11.2 11.8
09:00 998 29.47 827 24.42 -6.3 20.6 67 -11.4 11.5
09:05 998 29.47 827 24.42 -7 19.5 70 -11.6 11.1
09:10 998 29.47 827 24.42 -6.9 19.5 68 -11.9 10.5
09:15 998 29.47 827 24.42 -6.6 20.2 68 -11.5 11.3
09:20 998 29.47 827 24.42 -6.2 20.9 66 -11.4 11.4
09:25 998 29.47 827 24.42 -5.8 21.5 64 -11.5 11.3
09:30 998 29.47 827 24.42 -5.3 22.4 62 -11.5 11.3
09:35 998 29.47 827 24.42 -4.8 23.3 59 -11.6 11.1
09:40 998 29.47 827 24.42 -4.5 23.9 57 -11.7 10.9
09:45 998 29.47 827 24.42 -4.5 23.8 59 -11.4 11.4
09:50 998 29.47 827 24.42 -4.8 23.3 58 -11.9 10.5
09:55 998 29.47 827 24.42 -4.9 23.2 58 -12 10.5
10:00 998 29.47 827 24.42 -4.8 23.4 59 -11.7 10.9
10:05 998 29.47 827 24.42 -4.9 23.2 58 -11.9 10.6
10:10 998 29.47 828 24.45 -4.4 24 57 -11.7 10.9
10:15 998 29.47 827 24.42 -4.2 24.4 57 -11.6 11.1
10:20 998 29.47 827 24.42 -4.2 24.4 56 -11.8 10.8
10:25 998 29.47 827 24.42 -4.1 24.7 54 -12 10.4
10:30 998 29.47 828 24.45 -4.1 24.7 55 -11.9 10.6
10:35 998 29.47 828 24.45 -3.9 24.9 54 -11.9 10.5
10:40 998 29.47 828 24.45 -3.9 25 55 -11.8 10.8
10:45 998 29.47 828 24.45 -3.9 25 54 -11.8 10.7
10:50 998 29.47 828 24.45 -3.6 25.5 54 -11.7 10.9
10:55 998 29.47 828 24.45 -3.2 26.2 52 -11.7 11
11:00 998 29.47 828 24.45 -3.1 26.5 52 -11.5 11.2
11:05 998 29.47 828 24.45 -2.6 27.3 51 -11.5 11.2
11:10 998 29.47 828 24.45 -2.3 27.9 49 -11.7 10.9
11:15 998 29.47 828 24.45 -2.2 28 49 -11.6 11.2
11:20 998 29.47 828 24.45 -2.3 27.9 49 -11.6 11.2
11:25 998 29.47 828 24.45 -2.1 28.1 49 -11.4 11.5
11:30 998 29.47 828 24.45 -2.8 27 50 -11.7 11
11:35 998 29.47 828 24.45 -3 26.7 52 -11.4 11.5
11:40 998 29.47 828 24.45 -2.9 26.8 51 -11.7 11
11:45 998 29.47 828 24.45 -3 26.7 51 -11.8 10.8
11:50 998 29.47 828 24.45 -3.3 26 52 -11.7 10.9
11:55 998 29.47 828 24.45 -3.2 26.3 51 -12 10.5
12:00 998 29.47 827 24.42 -3.2 26.3 50 -12.2 10.1
12:05 998 29.47 827 24.42 -3 26.6 49 -12.3 9.9
12:10 998 29.47 827 24.42 -2.9 26.7 50 -11.9 10.5
12:15 998 29.47 827 24.42 -3.1 26.4 52 -11.6 11.1
12:20 998 29.47 827 24.42 -3.2 26.3 52 -11.8 10.8
12:25 998 29.47 827 24.42 -2.7 27.1 51 -11.6 11.1
12:30 998 29.47 827 24.42 -1.4 29.5 45 -11.7 10.9
12:35 998 29.47 827 24.42 -0.1 31.8 43 -11.2 11.9
12:40 998 29.47 827 24.42 0.3 32.5 41 -11.5 11.4
12:45 998 29.47 827 24.42 0.9 33.7 40 -11.3 11.7
12:50 998 29.47 827 24.42 1 33.8 42 -10.6 12.9
12:55 998 29.47 827 24.42 0.5 33 42 -10.9 12.3
13:00 998 29.47 827 24.42 0.5 32.9 42 -11.1 12
13:05 998 29.47 827 24.42 0.5 32.9 42 -11 12.3
13:10 998 29.47 827 24.42 0.7 33.2 43 -10.5 13.1
13:15 998 29.47 827 24.42 0.6 33.1 43 -10.6 13
13:20 998 29.47 827 24.42 0.3 32.5 44 -10.5 13.1
13:25 998 29.47 827 24.42 -0.4 31.3 47 -10.4 13.3
13:30 998 29.47 827 24.42 -0.9 30.4 48 -10.5 13.1
13:35 998 29.47 827 24.42 -0.8 30.5 48 -10.4 13.2
13:40 998 29.47 827 24.42 -0.8 30.6 48 -10.4 13.4
13:45 998 29.47 827 24.42 -1 30.3 51 -9.8 14.4
13:50 998 29.47 827 24.42 -1.6 29.2 54 -9.7 14.5
13:55 998 29.47 827 24.42 -1.7 28.9 54 -9.8 14.4
14:00 998 29.47 827 24.42 -1.5 29.4 53 -10 14.1
14:05 998 29.47 827 24.42 -2.1 28.2 54 -10.2 13.7
14:10 998 29.47 827 24.42 -2.3 27.8 53 -10.5 13
14:15 998 29.47 827 24.42 -2 28.5 54 -10.1 13.8
14:20 998 29.47 827 24.42 -1.5 29.4 52 -10.1 13.8
14:25 998 29.47 827 24.42 -1.2 29.8 52 -9.9 14.2
14:30 998 29.47 827 24.42 -1.6 29.1 54 -9.7 14.5
14:35 998 29.47 827 24.42 -1.6 29.2 55 -9.6 14.8
14:40 998 29.47 828 24.45 -2.3 27.9 55 -10.2 13.6
14:45 998 29.47 827 24.42 -1.9 28.6 51 -10.7 12.7
14:50 998 29.47 828 24.45 -1.8 28.8 52 -10.3 13.4
14:55 998 29.47 828 24.45 -1.7 29 52 -10.2 13.6
15:00 998 29.47 828 24.45 -1.2 29.9 51 -10.1 13.9
15:05 998 29.47 828 24.45 -1 30.2 51 -10 14.1
15:10 999 29.5 828 24.45 -1 30.1 54 -9.2 15.4
15:15 999 29.5 828 24.45 -1.2 29.9 53 -9.6 14.7
15:20 999 29.5 828 24.45 -1.1 30 53 -9.4 15
15:25 999 29.5 828 24.45 -0.9 30.4 51 -9.8 14.4
15:30 999 29.5 828 24.45 -1 30.3 54 -9.1 15.7
15:35 999 29.5 828 24.45 -1.1 30.1 53 -9.6 14.8
15:40 999 29.5 828 24.45 -1.3 29.6 53 -9.8 14.4
15:45 999 29.5 828 24.45 -1.5 29.4 53 -9.8 14.4
15:50 999 29.5 828 24.45 -1.5 29.2 54 -9.7 14.6
15:55 999 29.5 828 24.45 -1.6 29.2 55 -9.5 15
16:00 999 29.5 828 24.45 -1.5 29.3 54 -9.5 14.8
16:05 999 29.5 828 24.45 -1.3 29.6 54 -9.5 14.8
16:10 999 29.5 829 24.48 -1.2 29.8 55 -9.2 15.4
16:15 999 29.5 829 24.48 -1.3 29.8 54 -9.4 15.1
16:20 999 29.5 829 24.48 -1.4 29.4 54 -9.5 14.9
16:25 1000 29.53 829 24.48 -1.6 29.2 54 -9.6 14.7
16:30 1000 29.53 829 24.48 -1.6 29.2 55 -9.5 14.9
16:35 1000 29.53 829 24.48 -1.5 29.2 55 -9.4 15.1
16:40 1000 29.53 829 24.48 -1.6 29.1 58 -9 15.9
16:45 1000 29.53 829 24.48 -1.6 29.1 58 -8.8 16.1
16:50 1000 29.53 829 24.48 -1.5 29.2 60 -8.4 16.8
16:55 1000 29.53 829 24.48 -1.7 29 64 -7.6 18.3
17:00 1000 29.53 829 24.48 -2 28.4 66 -7.5 18.5
17:05 1000 29.53 829 24.48 -2.1 28.2 69 -7 19.4
17:10 1000 29.53 829 24.48 -2.3 27.9 73 -6.4 20.4
17:15 1000 29.53 830 24.51 -2.4 27.7 75 -6.3 20.7
17:20 1000 29.53 830 24.51 -2.5 27.5 77 -6 21.2
17:25 1001 29.56 830 24.51 -2.9 26.8 81 -5.8 21.6
17:30 1001 29.56 830 24.51 -3.3 26.1 83 -5.7 21.7
17:35 1001 29.56 830 24.51 -3.2 26.2 84 -5.6 22
17:40 1001 29.56 830 24.51 -3.6 25.6 87 -5.4 22.2
17:45 1001 29.56 830 24.51 -3.9 25 88 -5.6 22
17:50 1001 29.56 830 24.51 -4 24.8 90 -5.5 22.1
17:55 1001 29.56 830 24.51 -3.9 25.1 89 -5.5 22.1
18:00 1001 29.56 830 24.51 -3.8 25.2 89 -5.3 22.4
18:05 1001 29.56 830 24.51 -3.7 25.4 87 -5.5 22
18:10 1001 29.56 830 24.51 -3.6 25.4 87 -5.5 22.2
18:15 1001 29.56 830 24.51 -4 24.8 89 -5.6 22
18:20 1001 29.56 831 24.54 -4.3 24.3 89 -5.8 21.6
18:25 1001 29.56 831 24.54 -4.3 24.3 89 -5.8 21.5
18:30 1002 29.59 831 24.54 -4.2 24.5 90 -5.6 21.8
18:35 1002 29.59 831 24.54 -3.8 25.1 88 -5.5 22.1
18:40 1002 29.59 831 24.54 -3.8 25.1 89 -5.4 22.3
18:45 1002 29.59 831 24.54 -3.9 25 88 -5.6 22
18:50 1002 29.59 831 24.54 -4.1 24.6 90 -5.5 22.1
18:55 1002 29.59 831 24.54 -4.3 24.3 91 -5.6 21.9
19:00 1002 29.59 831 24.54 -4.6 23.8 93 -5.6 22
19:05 1002 29.59 831 24.54 -4.7 23.6 93 -5.6 22
19:10 1002 29.59 831 24.54 -4.7 23.5 94 -5.6 21.9
19:15 1002 29.59 831 24.54 -4.6 23.6 93 -5.6 21.9
19:20 1002 29.59 831 24.54 -4.7 23.6 94 -5.5 22.1
19:25 1002 29.59 831 24.54 -4.7 23.6 94 -5.5 22
19:30 1002 29.59 831 24.54 -4.6 23.7 93 -5.7 21.8
19:35 1002 29.59 831 24.54 -4.7 23.5 93 -5.8 21.6
19:40 1002 29.59 832 24.57 -4.8 23.3 93 -5.8 21.6
19:45 1002 29.59 832 24.57 -4.9 23.2 94 -5.7 21.7
19:50 1003 29.62 832 24.57 -4.9 23.3 94 -5.7 21.8
19:55 1003 29.62 832 24.57 -4.8 23.4 94 -5.6 21.8
20:00 1003 29.62 832 24.57 -4.8 23.3 94 -5.7 21.8
20:05 1003 29.62 832 24.57 -4.9 23.1 94 -5.8 21.5
20:10 1003 29.62 832 24.57 -5 22.9 92 -6.1 21
20:15 1003 29.62 832 24.57 -5 23 91 -6.3 20.6
20:20 1003 29.62 832 24.57 -5.1 22.8 90 -6.5 20.3
20:25 1003 29.62 832 24.57 -5.2 22.7 90 -6.6 20.2
20:30 1003 29.62 832 24.57 -5.2 22.7 89 -6.7 20
20:35 1003 29.62 832 24.57 -5.2 22.6 89 -6.8 19.8
20:40 1003 29.62 832 24.57 -5.2 22.6 88 -6.9 19.5
20:45 1003 29.62 832 24.57 -5.2 22.7 85 -7.4 18.8
20:50 1003 29.62 833 24.6 -5.1 22.8 83 -7.6 18.3
20:55 1003 29.62 833 24.6 -5.1 22.9 81 -7.9 17.8
21:00 1003 29.62 833 24.6 -5 22.9 80 -8 17.6
21:05 1004 29.65 833 24.6 -5.1 22.9 79 -8.1 17.4
21:10 1004 29.65 833 24.6 -5.1 22.9 77 -8.5 16.8
21:15 1004 29.65 833 24.6 -5.1 22.8 76 -8.7 16.4
21:20 1004 29.65 833 24.6 -5.2 22.7 75 -9 15.9
21:25 1004 29.65 833 24.6 -5.2 22.7 75 -9 15.9
21:30 1004 29.65 833 24.6 -5.3 22.6 75 -9 15.9
21:35 1004 29.65 833 24.6 -5.3 22.5 75 -9.1 15.7
21:40 1004 29.65 833 24.6 -5.3 22.5 74 -9.2 15.4
21:45 1004 29.65 833 24.6 -5.3 22.5 73 -9.4 15.1
21:50 1004 29.65 833 24.6 -5.3 22.4 72 -9.6 14.8
21:55 1004 29.65 833 24.6 -5.4 22.4 71 -9.9 14.3
22:00 1004 29.65 833 24.6 -5.3 22.4 69 -10.1 13.8
22:05 1004 29.65 833 24.6 -5.3 22.5 70 -10 14.1
22:10 1004 29.65 834 24.63 -5.2 22.6 79 -8.3 17
22:15 1004 29.65 834 24.63 -5.4 22.4 83 -7.8 17.9
22:20 1005 29.68 834 24.63 -5.3 22.5 83 -7.8 18
22:25 1005 29.68 834 24.63 -5.4 22.2 88 -7.1 19.1
22:30 1005 29.68 834 24.63 -5.7 21.7 89 -7.2 19
22:35 1005 29.68 834 24.63 -5.9 21.4 89 -7.4 18.7
22:40 1005 29.68 834 24.63 -6.1 21 92 -7.3 18.9
22:45 1005 29.68 834 24.63 -6.1 21.1 90 -7.5 18.6
22:50 1005 29.68 834 24.63 -6 21.2 90 -7.4 18.8
22:55 1005 29.68 834 24.63 -6.3 20.6 92 -7.5 18.5
23:00 1005 29.68 834 24.63 -6.5 20.3 92 -7.6 18.4
23:05 1005 29.68 834 24.63 -6.4 20.4 92 -7.5 18.4
23:10 1005 29.68 835 24.66 -6.5 20.4 92 -7.5 18.5
23:15 1005 29.68 835 24.66 -6.5 20.3 92 -7.6 18.4
23:20 1006 29.71 835 24.66 -6.5 20.3 93 -7.5 18.5
23:25 1006 29.71 835 24.66 -6.4 20.5 92 -7.5 18.4
23:30 1006 29.71 835 24.66 -6.3 20.6 91 -7.6 18.3
23:35 1006 29.71 835 24.66 -6.4 20.4 90 -7.8 18
23:40 1006 29.71 835 24.66 -6.7 19.9 91 -7.9 17.7
23:45 1006 29.71 835 24.66 -6.8 19.7 91 -8.1 17.4
23:50 1006 29.71 835 24.66 -6.9 19.6 92 -8 17.6
23:55 1006 29.71 835 24.66 -6.9 19.6 90 -8.2 17.3
24:00 1006 29.71 835 24.66 -6.9 19.5 90 -8.3 17.1